sensor_id;sensor_type;location;lat;lon;timestamp;P1;durP1;ratioP1;P2;durP2;ratioP2
21705;SDS011;11014;53.076;18.208;2022-12-07T00:01:44;19.65;;;9.75;;
21705;SDS011;11014;53.076;18.208;2022-12-07T00:04:14;17.15;;;9.90;;
21705;SDS011;11014;53.076;18.208;2022-12-07T00:06:46;16.55;;;9.55;;
21705;SDS011;11014;53.076;18.208;2022-12-07T00:09:18;15.32;;;9.25;;
21705;SDS011;11014;53.076;18.208;2022-12-07T00:11:49;18.80;;;9.70;;
21705;SDS011;11014;53.076;18.208;2022-12-07T00:14:18;15.50;;;9.52;;
21705;SDS011;11014;53.076;18.208;2022-12-07T00:16:51;17.65;;;9.80;;
21705;SDS011;11014;53.076;18.208;2022-12-07T00:19:20;20.05;;;10.85;;
21705;SDS011;11014;53.076;18.208;2022-12-07T00:21:48;18.88;;;10.55;;
21705;SDS011;11014;53.076;18.208;2022-12-07T00:24:17;20.17;;;10.20;;
21705;SDS011;11014;53.076;18.208;2022-12-07T00:26:46;21.02;;;11.20;;
21705;SDS011;11014;53.076;18.208;2022-12-07T00:29:15;19.20;;;10.98;;
21705;SDS011;11014;53.076;18.208;2022-12-07T00:31:46;23.30;;;11.43;;
21705;SDS011;11014;53.076;18.208;2022-12-07T00:34:16;19.50;;;10.73;;
21705;SDS011;11014;53.076;18.208;2022-12-07T00:36:46;23.92;;;11.85;;
21705;SDS011;11014;53.076;18.208;2022-12-07T00:39:15;20.92;;;11.13;;
21705;SDS011;11014;53.076;18.208;2022-12-07T00:41:44;22.95;;;11.35;;
21705;SDS011;11014;53.076;18.208;2022-12-07T00:44:12;18.20;;;10.60;;
21705;SDS011;11014;53.076;18.208;2022-12-07T00:46:41;21.48;;;11.32;;
21705;SDS011;11014;53.076;18.208;2022-12-07T00:49:09;21.20;;;10.90;;
21705;SDS011;11014;53.076;18.208;2022-12-07T00:51:37;23.83;;;12.25;;
21705;SDS011;11014;53.076;18.208;2022-12-07T00:54:06;22.00;;;12.32;;
21705;SDS011;11014;53.076;18.208;2022-12-07T00:56:34;16.30;;;9.43;;
21705;SDS011;11014;53.076;18.208;2022-12-07T00:59:03;19.65;;;10.07;;
21705;SDS011;11014;53.076;18.208;2022-12-07T01:01:33;17.77;;;10.50;;
21705;SDS011;11014;53.076;18.208;2022-12-07T01:04:03;17.60;;;9.25;;
21705;SDS011;11014;53.076;18.208;2022-12-07T01:06:33;21.55;;;10.27;;
21705;SDS011;11014;53.076;18.208;2022-12-07T01:09:02;19.63;;;10.52;;
21705;SDS011;11014;53.076;18.208;2022-12-07T01:11:32;17.67;;;9.82;;
21705;SDS011;11014;53.076;18.208;2022-12-07T01:14:01;19.33;;;10.05;;
21705;SDS011;11014;53.076;18.208;2022-12-07T01:16:30;17.25;;;9.05;;
21705;SDS011;11014;53.076;18.208;2022-12-07T01:19:00;15.07;;;9.05;;
21705;SDS011;11014;53.076;18.208;2022-12-07T01:21:29;16.77;;;9.48;;
21705;SDS011;11014;53.076;18.208;2022-12-07T01:24:04;14.48;;;8.50;;
21705;SDS011;11014;53.076;18.208;2022-12-07T01:26:35;14.65;;;8.63;;
21705;SDS011;11014;53.076;18.208;2022-12-07T01:29:04;15.73;;;9.18;;
21705;SDS011;11014;53.076;18.208;2022-12-07T01:31:33;12.98;;;7.63;;
21705;SDS011;11014;53.076;18.208;2022-12-07T01:34:01;14.13;;;8.07;;
21705;SDS011;11014;53.076;18.208;2022-12-07T01:36:31;13.30;;;7.82;;
21705;SDS011;11014;53.076;18.208;2022-12-07T01:39:03;14.48;;;7.68;;
21705;SDS011;11014;53.076;18.208;2022-12-07T01:41:36;12.80;;;7.47;;
21705;SDS011;11014;53.076;18.208;2022-12-07T01:44:24;12.05;;;7.40;;
21705;SDS011;11014;53.076;18.208;2022-12-07T01:46:58;12.23;;;6.95;;
21705;SDS011;11014;53.076;18.208;2022-12-07T01:49:29;9.13;;;6.35;;
21705;SDS011;11014;53.076;18.208;2022-12-07T01:52:27;12.60;;;7.25;;
21705;SDS011;11014;53.076;18.208;2022-12-07T01:55:03;12.15;;;6.82;;
21705;SDS011;11014;53.076;18.208;2022-12-07T01:57:34;11.15;;;6.50;;
21705;SDS011;11014;53.076;18.208;2022-12-07T02:00:09;11.52;;;6.25;;
21705;SDS011;11014;53.076;18.208;2022-12-07T02:03:00;10.15;;;5.95;;
21705;SDS011;11014;53.076;18.208;2022-12-07T02:05:33;8.65;;;5.50;;
21705;SDS011;11014;53.076;18.208;2022-12-07T02:08:03;9.18;;;5.80;;
21705;SDS011;11014;53.076;18.208;2022-12-07T02:10:32;10.48;;;6.07;;
21705;SDS011;11014;53.076;18.208;2022-12-07T02:13:03;8.80;;;5.57;;
21705;SDS011;11014;53.076;18.208;2022-12-07T02:15:34;10.00;;;5.72;;
21705;SDS011;11014;53.076;18.208;2022-12-07T02:18:17;8.65;;;5.35;;
21705;SDS011;11014;53.076;18.208;2022-12-07T02:21:07;8.13;;;5.07;;
21705;SDS011;11014;53.076;18.208;2022-12-07T02:26:47;10.57;;;5.30;;
21705;SDS011;11014;53.076;18.208;2022-12-07T02:29:20;8.02;;;5.20;;
21705;SDS011;11014;53.076;18.208;2022-12-07T02:34:42;7.65;;;5.05;;
21705;SDS011;11014;53.076;18.208;2022-12-07T02:42:47;7.90;;;5.38;;
21705;SDS011;11014;53.076;18.208;2022-12-07T02:45:40;10.60;;;5.80;;
21705;SDS011;11014;53.076;18.208;2022-12-07T02:48:10;9.25;;;5.88;;
21705;SDS011;11014;53.076;18.208;2022-12-07T02:53:31;9.45;;;5.57;;
21705;SDS011;11014;53.076;18.208;2022-12-07T02:56:31;10.23;;;6.53;;
21705;SDS011;11014;53.076;18.208;2022-12-07T02:59:02;10.77;;;6.05;;
21705;SDS011;11014;53.076;18.208;2022-12-07T03:07:18;16.38;;;8.00;;
21705;SDS011;11014;53.076;18.208;2022-12-07T03:16:17;14.88;;;7.85;;
21705;SDS011;11014;53.076;18.208;2022-12-07T03:18:50;13.82;;;7.65;;
21705;SDS011;11014;53.076;18.208;2022-12-07T03:21:26;18.40;;;8.90;;
21705;SDS011;11014;53.076;18.208;2022-12-07T03:24:00;18.08;;;9.30;;
21705;SDS011;11014;53.076;18.208;2022-12-07T03:26:35;21.63;;;10.20;;
21705;SDS011;11014;53.076;18.208;2022-12-07T03:29:14;17.42;;;9.27;;
21705;SDS011;11014;53.076;18.208;2022-12-07T03:31:59;16.63;;;9.25;;
21705;SDS011;11014;53.076;18.208;2022-12-07T03:34:40;21.52;;;10.68;;
21705;SDS011;11014;53.076;18.208;2022-12-07T03:37:19;22.30;;;10.95;;
21705;SDS011;11014;53.076;18.208;2022-12-07T03:40:13;18.85;;;10.30;;
21705;SDS011;11014;53.076;18.208;2022-12-07T03:42:50;17.05;;;10.13;;
21705;SDS011;11014;53.076;18.208;2022-12-07T03:45:22;13.98;;;8.68;;
21705;SDS011;11014;53.076;18.208;2022-12-07T03:48:40;12.90;;;7.93;;
21705;SDS011;11014;53.076;18.208;2022-12-07T03:51:49;14.23;;;8.93;;
21705;SDS011;11014;53.076;18.208;2022-12-07T03:54:29;12.57;;;8.20;;
21705;SDS011;11014;53.076;18.208;2022-12-07T03:57:03;13.38;;;8.25;;
21705;SDS011;11014;53.076;18.208;2022-12-07T03:59:33;13.07;;;7.85;;
21705;SDS011;11014;53.076;18.208;2022-12-07T04:02:03;13.15;;;8.18;;
21705;SDS011;11014;53.076;18.208;2022-12-07T04:04:33;14.95;;;9.50;;
21705;SDS011;11014;53.076;18.208;2022-12-07T04:07:02;15.00;;;9.50;;
21705;SDS011;11014;53.076;18.208;2022-12-07T04:09:30;14.07;;;8.50;;
21705;SDS011;11014;53.076;18.208;2022-12-07T04:11:59;10.77;;;7.43;;
21705;SDS011;11014;53.076;18.208;2022-12-07T04:14:27;12.75;;;8.18;;
21705;SDS011;11014;53.076;18.208;2022-12-07T04:16:56;11.32;;;7.53;;
21705;SDS011;11014;53.076;18.208;2022-12-07T04:19:27;11.60;;;7.25;;
21705;SDS011;11014;53.076;18.208;2022-12-07T04:21:57;11.63;;;7.05;;
21705;SDS011;11014;53.076;18.208;2022-12-07T04:24:27;9.13;;;6.63;;
21705;SDS011;11014;53.076;18.208;2022-12-07T04:26:56;11.07;;;6.22;;
21705;SDS011;11014;53.076;18.208;2022-12-07T04:29:25;11.98;;;7.28;;
21705;SDS011;11014;53.076;18.208;2022-12-07T04:31:54;9.55;;;6.38;;
21705;SDS011;11014;53.076;18.208;2022-12-07T04:34:22;7.80;;;5.30;;
21705;SDS011;11014;53.076;18.208;2022-12-07T04:36:51;9.57;;;6.38;;
21705;SDS011;11014;53.076;18.208;2022-12-07T04:39:21;10.10;;;7.05;;
21705;SDS011;11014;53.076;18.208;2022-12-07T04:41:52;8.55;;;6.53;;
21705;SDS011;11014;53.076;18.208;2022-12-07T04:44:23;9.63;;;6.50;;
21705;SDS011;11014;53.076;18.208;2022-12-07T04:46:54;8.50;;;6.15;;
21705;SDS011;11014;53.076;18.208;2022-12-07T04:49:23;8.88;;;6.07;;
21705;SDS011;11014;53.076;18.208;2022-12-07T04:51:52;9.77;;;6.47;;
21705;SDS011;11014;53.076;18.208;2022-12-07T04:54:21;9.27;;;6.35;;
21705;SDS011;11014;53.076;18.208;2022-12-07T04:56:49;8.27;;;5.38;;
21705;SDS011;11014;53.076;18.208;2022-12-07T04:59:17;8.95;;;6.13;;
21705;SDS011;11014;53.076;18.208;2022-12-07T05:01:47;8.48;;;5.57;;
21705;SDS011;11014;53.076;18.208;2022-12-07T05:04:15;8.07;;;5.50;;
21705;SDS011;11014;53.076;18.208;2022-12-07T05:06:44;7.50;;;5.28;;
21705;SDS011;11014;53.076;18.208;2022-12-07T05:09:12;8.10;;;5.72;;
21705;SDS011;11014;53.076;18.208;2022-12-07T05:11:41;9.00;;;5.75;;
21705;SDS011;11014;53.076;18.208;2022-12-07T05:14:15;9.93;;;6.40;;
21705;SDS011;11014;53.076;18.208;2022-12-07T05:16:46;8.88;;;5.90;;
21705;SDS011;11014;53.076;18.208;2022-12-07T05:19:17;9.25;;;6.15;;
21705;SDS011;11014;53.076;18.208;2022-12-07T05:24:41;8.10;;;5.28;;
21705;SDS011;11014;53.076;18.208;2022-12-07T05:27:09;9.20;;;6.20;;
21705;SDS011;11014;53.076;18.208;2022-12-07T05:29:37;7.82;;;5.35;;
21705;SDS011;11014;53.076;18.208;2022-12-07T05:32:06;8.70;;;5.90;;
21705;SDS011;11014;53.076;18.208;2022-12-07T05:34:34;9.50;;;6.20;;
21705;SDS011;11014;53.076;18.208;2022-12-07T05:37:03;7.53;;;5.30;;
21705;SDS011;11014;53.076;18.208;2022-12-07T05:39:31;7.00;;;4.47;;
21705;SDS011;11014;53.076;18.208;2022-12-07T05:42:00;7.35;;;5.60;;
21705;SDS011;11014;53.076;18.208;2022-12-07T05:44:41;6.65;;;4.90;;
21705;SDS011;11014;53.076;18.208;2022-12-07T05:47:12;8.80;;;5.03;;
21705;SDS011;11014;53.076;18.208;2022-12-07T05:49:42;8.25;;;5.40;;
21705;SDS011;11014;53.076;18.208;2022-12-07T05:52:10;9.00;;;5.25;;
21705;SDS011;11014;53.076;18.208;2022-12-07T05:54:43;9.25;;;5.50;;
21705;SDS011;11014;53.076;18.208;2022-12-07T05:58:00;8.18;;;5.10;;
21705;SDS011;11014;53.076;18.208;2022-12-07T06:00:46;8.52;;;5.07;;
21705;SDS011;11014;53.076;18.208;2022-12-07T06:05:47;9.68;;;5.82;;
21705;SDS011;11014;53.076;18.208;2022-12-07T06:08:16;10.10;;;5.50;;
21705;SDS011;11014;53.076;18.208;2022-12-07T06:10:44;11.45;;;5.95;;
21705;SDS011;11014;53.076;18.208;2022-12-07T06:13:16;9.40;;;5.68;;
21705;SDS011;11014;53.076;18.208;2022-12-07T06:15:44;11.38;;;6.47;;
21705;SDS011;11014;53.076;18.208;2022-12-07T06:18:13;13.32;;;6.32;;
21705;SDS011;11014;53.076;18.208;2022-12-07T06:20:41;12.70;;;6.55;;
21705;SDS011;11014;53.076;18.208;2022-12-07T06:23:09;13.02;;;6.90;;
21705;SDS011;11014;53.076;18.208;2022-12-07T06:25:38;15.40;;;7.50;;
21705;SDS011;11014;53.076;18.208;2022-12-07T06:28:06;14.73;;;7.35;;
21705;SDS011;11014;53.076;18.208;2022-12-07T06:30:35;17.00;;;7.55;;
21705;SDS011;11014;53.076;18.208;2022-12-07T06:33:04;13.68;;;7.07;;
21705;SDS011;11014;53.076;18.208;2022-12-07T06:35:32;11.90;;;6.75;;
21705;SDS011;11014;53.076;18.208;2022-12-07T06:38:01;16.13;;;7.72;;
21705;SDS011;11014;53.076;18.208;2022-12-07T06:40:29;14.95;;;6.75;;
21705;SDS011;11014;53.076;18.208;2022-12-07T06:42:58;19.75;;;8.00;;
21705;SDS011;11014;53.076;18.208;2022-12-07T06:45:26;15.80;;;7.93;;
21705;SDS011;11014;53.076;18.208;2022-12-07T06:47:55;15.10;;;8.50;;
21705;SDS011;11014;53.076;18.208;2022-12-07T06:50:24;19.10;;;8.65;;
21705;SDS011;11014;53.076;18.208;2022-12-07T06:52:53;15.02;;;7.18;;
21705;SDS011;11014;53.076;18.208;2022-12-07T06:55:21;18.92;;;7.50;;
21705;SDS011;11014;53.076;18.208;2022-12-07T06:57:50;20.33;;;8.65;;
21705;SDS011;11014;53.076;18.208;2022-12-07T07:00:18;16.35;;;7.80;;
21705;SDS011;11014;53.076;18.208;2022-12-07T07:02:49;21.48;;;9.27;;
21705;SDS011;11014;53.076;18.208;2022-12-07T07:05:19;17.70;;;8.98;;
21705;SDS011;11014;53.076;18.208;2022-12-07T07:07:51;20.50;;;9.27;;
21705;SDS011;11014;53.076;18.208;2022-12-07T07:10:40;18.73;;;8.63;;
21705;SDS011;11014;53.076;18.208;2022-12-07T07:13:10;18.95;;;9.77;;
21705;SDS011;11014;53.076;18.208;2022-12-07T07:15:38;18.90;;;9.43;;
21705;SDS011;11014;53.076;18.208;2022-12-07T07:18:07;19.55;;;9.82;;
21705;SDS011;11014;53.076;18.208;2022-12-07T07:20:35;18.80;;;9.95;;
21705;SDS011;11014;53.076;18.208;2022-12-07T07:23:04;16.83;;;9.07;;
21705;SDS011;11014;53.076;18.208;2022-12-07T07:25:33;21.90;;;11.40;;
21705;SDS011;11014;53.076;18.208;2022-12-07T07:28:02;22.33;;;11.40;;
21705;SDS011;11014;53.076;18.208;2022-12-07T07:30:31;24.17;;;10.52;;
21705;SDS011;11014;53.076;18.208;2022-12-07T07:33:00;27.35;;;12.48;;
21705;SDS011;11014;53.076;18.208;2022-12-07T07:35:30;14.50;;;7.90;;
21705;SDS011;11014;53.076;18.208;2022-12-07T07:38:00;20.58;;;10.65;;
21705;SDS011;11014;53.076;18.208;2022-12-07T07:40:29;21.27;;;10.13;;
21705;SDS011;11014;53.076;18.208;2022-12-07T07:42:58;21.08;;;10.45;;
21705;SDS011;11014;53.076;18.208;2022-12-07T07:45:27;19.88;;;10.25;;
21705;SDS011;11014;53.076;18.208;2022-12-07T07:47:56;22.73;;;10.43;;
21705;SDS011;11014;53.076;18.208;2022-12-07T07:53:19;22.20;;;10.25;;
21705;SDS011;11014;53.076;18.208;2022-12-07T07:55:54;20.38;;;10.63;;
21705;SDS011;11014;53.076;18.208;2022-12-07T07:58:23;20.27;;;10.43;;
21705;SDS011;11014;53.076;18.208;2022-12-07T08:00:51;23.98;;;10.77;;
21705;SDS011;11014;53.076;18.208;2022-12-07T08:03:20;21.15;;;10.13;;
21705;SDS011;11014;53.076;18.208;2022-12-07T08:05:48;17.95;;;9.85;;
21705;SDS011;11014;53.076;18.208;2022-12-07T08:08:17;20.10;;;10.77;;
21705;SDS011;11014;53.076;18.208;2022-12-07T08:10:45;23.30;;;11.30;;
21705;SDS011;11014;53.076;18.208;2022-12-07T08:13:23;25.90;;;11.85;;
21705;SDS011;11014;53.076;18.208;2022-12-07T08:15:57;20.88;;;12.15;;
21705;SDS011;11014;53.076;18.208;2022-12-07T08:18:42;22.23;;;12.77;;
21705;SDS011;11014;53.076;18.208;2022-12-07T08:21:12;21.40;;;11.10;;
21705;SDS011;11014;53.076;18.208;2022-12-07T08:23:42;20.87;;;11.57;;
21705;SDS011;11014;53.076;18.208;2022-12-07T08:26:13;18.85;;;11.02;;
21705;SDS011;11014;53.076;18.208;2022-12-07T08:28:44;18.73;;;10.15;;
21705;SDS011;11014;53.076;18.208;2022-12-07T08:31:15;19.05;;;10.70;;
21705;SDS011;11014;53.076;18.208;2022-12-07T08:33:47;16.98;;;9.40;;
21705;SDS011;11014;53.076;18.208;2022-12-07T08:36:17;18.83;;;9.60;;
21705;SDS011;11014;53.076;18.208;2022-12-07T08:38:46;17.45;;;10.02;;
21705;SDS011;11014;53.076;18.208;2022-12-07T08:41:34;19.00;;;9.07;;
21705;SDS011;11014;53.076;18.208;2022-12-07T08:46:58;24.75;;;11.38;;
21705;SDS011;11014;53.076;18.208;2022-12-07T08:49:31;19.05;;;11.20;;
21705;SDS011;11014;53.076;18.208;2022-12-07T08:53:00;19.40;;;10.27;;
21705;SDS011;11014;53.076;18.208;2022-12-07T08:55:30;19.80;;;11.18;;
21705;SDS011;11014;53.076;18.208;2022-12-07T08:58:01;18.35;;;10.55;;
21705;SDS011;11014;53.076;18.208;2022-12-07T09:00:32;18.23;;;11.18;;
21705;SDS011;11014;53.076;18.208;2022-12-07T09:03:00;18.75;;;10.15;;
21705;SDS011;11014;53.076;18.208;2022-12-07T09:05:29;19.17;;;11.05;;
21705;SDS011;11014;53.076;18.208;2022-12-07T09:07:57;17.48;;;10.63;;
21705;SDS011;11014;53.076;18.208;2022-12-07T09:12:58;21.85;;;11.35;;
21705;SDS011;11014;53.076;18.208;2022-12-07T09:15:29;22.23;;;11.35;;
21705;SDS011;11014;53.076;18.208;2022-12-07T09:17:59;18.52;;;10.27;;
21705;SDS011;11014;53.076;18.208;2022-12-07T09:20:29;16.98;;;10.13;;
21705;SDS011;11014;53.076;18.208;2022-12-07T09:22:57;18.25;;;10.55;;
21705;SDS011;11014;53.076;18.208;2022-12-07T09:25:25;17.20;;;10.10;;
21705;SDS011;11014;53.076;18.208;2022-12-07T09:27:57;14.30;;;8.30;;
21705;SDS011;11014;53.076;18.208;2022-12-07T09:30:26;18.23;;;9.98;;
21705;SDS011;11014;53.076;18.208;2022-12-07T09:32:56;17.42;;;10.40;;
21705;SDS011;11014;53.076;18.208;2022-12-07T09:35:25;15.43;;;9.35;;
21705;SDS011;11014;53.076;18.208;2022-12-07T09:37:53;16.40;;;9.55;;
21705;SDS011;11014;53.076;18.208;2022-12-07T09:40:22;20.02;;;10.18;;
21705;SDS011;11014;53.076;18.208;2022-12-07T09:42:52;16.73;;;9.77;;
21705;SDS011;11014;53.076;18.208;2022-12-07T09:45:25;16.33;;;9.13;;
21705;SDS011;11014;53.076;18.208;2022-12-07T09:48:00;16.40;;;9.23;;
21705;SDS011;11014;53.076;18.208;2022-12-07T09:50:31;14.50;;;8.95;;
21705;SDS011;11014;53.076;18.208;2022-12-07T09:53:08;14.50;;;9.32;;
21705;SDS011;11014;53.076;18.208;2022-12-07T09:55:47;14.90;;;9.82;;
21705;SDS011;11014;53.076;18.208;2022-12-07T09:58:20;16.55;;;10.05;;
21705;SDS011;11014;53.076;18.208;2022-12-07T10:08:34;12.70;;;8.75;;
21705;SDS011;11014;53.076;18.208;2022-12-07T10:11:02;14.73;;;9.65;;
21705;SDS011;11014;53.076;18.208;2022-12-07T10:13:38;16.65;;;10.20;;
21705;SDS011;11014;53.076;18.208;2022-12-07T10:18:53;15.73;;;10.05;;
21705;SDS011;11014;53.076;18.208;2022-12-07T10:21:27;15.20;;;10.15;;
21705;SDS011;11014;53.076;18.208;2022-12-07T10:24:00;10.80;;;7.15;;
21705;SDS011;11014;53.076;18.208;2022-12-07T10:26:32;11.55;;;8.80;;
21705;SDS011;11014;53.076;18.208;2022-12-07T10:31:52;12.82;;;8.85;;
21705;SDS011;11014;53.076;18.208;2022-12-07T10:34:29;11.52;;;8.30;;
21705;SDS011;11014;53.076;18.208;2022-12-07T10:37:12;11.55;;;8.05;;
21705;SDS011;11014;53.076;18.208;2022-12-07T10:39:52;11.82;;;8.82;;
21705;SDS011;11014;53.076;18.208;2022-12-07T10:42:29;12.52;;;8.35;;
21705;SDS011;11014;53.076;18.208;2022-12-07T11:02:50;10.85;;;8.55;;
21705;SDS011;11014;53.076;18.208;2022-12-07T11:11:06;11.18;;;8.10;;
21705;SDS011;11014;53.076;18.208;2022-12-07T11:19:16;12.68;;;7.78;;
21705;SDS011;11014;53.076;18.208;2022-12-07T11:22:08;12.10;;;8.40;;
21705;SDS011;11014;53.076;18.208;2022-12-07T11:27:40;11.18;;;8.48;;
21705;SDS011;11014;53.076;18.208;2022-12-07T11:30:19;12.75;;;8.90;;
21705;SDS011;11014;53.076;18.208;2022-12-07T11:33:15;11.07;;;8.20;;
21705;SDS011;11014;53.076;18.208;2022-12-07T11:35:57;14.75;;;10.07;;
21705;SDS011;11014;53.076;18.208;2022-12-07T11:39:00;12.10;;;8.52;;
21705;SDS011;11014;53.076;18.208;2022-12-07T11:41:34;14.70;;;8.20;;
21705;SDS011;11014;53.076;18.208;2022-12-07T11:49:44;12.07;;;8.35;;
21705;SDS011;11014;53.076;18.208;2022-12-07T11:53:23;13.07;;;8.48;;
21705;SDS011;11014;53.076;18.208;2022-12-07T11:55:24;12.25;;;8.82;;
21705;SDS011;11014;53.076;18.208;2022-12-07T11:58:04;12.30;;;8.38;;
21705;SDS011;11014;53.076;18.208;2022-12-07T12:03:15;10.98;;;7.68;;
21705;SDS011;11014;53.076;18.208;2022-12-07T12:05:49;10.10;;;6.95;;
21705;SDS011;11014;53.076;18.208;2022-12-07T12:08:20;11.43;;;7.32;;
21705;SDS011;11014;53.076;18.208;2022-12-07T12:14:19;8.75;;;6.53;;
21705;SDS011;11014;53.076;18.208;2022-12-07T12:19:57;11.00;;;7.85;;
21705;SDS011;11014;53.076;18.208;2022-12-07T12:22:58;11.85;;;7.30;;
21705;SDS011;11014;53.076;18.208;2022-12-07T12:25:44;11.88;;;7.88;;
21705;SDS011;11014;53.076;18.208;2022-12-07T12:31:13;11.90;;;8.10;;
21705;SDS011;11014;53.076;18.208;2022-12-07T12:33:44;16.45;;;9.13;;
21705;SDS011;11014;53.076;18.208;2022-12-07T12:50:17;12.02;;;8.48;;
21705;SDS011;11014;53.076;18.208;2022-12-07T12:52:49;15.63;;;8.60;;
21705;SDS011;11014;53.076;18.208;2022-12-07T12:59:17;13.07;;;8.73;;
21705;SDS011;11014;53.076;18.208;2022-12-07T13:01:49;12.30;;;8.48;;
21705;SDS011;11014;53.076;18.208;2022-12-07T13:13:00;14.00;;;8.75;;
21705;SDS011;11014;53.076;18.208;2022-12-07T13:15:42;12.45;;;7.53;;
21705;SDS011;11014;53.076;18.208;2022-12-07T13:23:38;13.20;;;8.68;;
21705;SDS011;11014;53.076;18.208;2022-12-07T13:32:41;21.58;;;12.48;;
21705;SDS011;11014;53.076;18.208;2022-12-07T13:36:27;16.08;;;10.25;;
21705;SDS011;11014;53.076;18.208;2022-12-07T13:41:57;9.88;;;6.65;;
21705;SDS011;11014;53.076;18.208;2022-12-07T13:44:27;15.02;;;9.20;;
21705;SDS011;11014;53.076;18.208;2022-12-07T13:47:13;9.57;;;6.00;;
21705;SDS011;11014;53.076;18.208;2022-12-07T13:50:26;15.48;;;9.63;;
21705;SDS011;11014;53.076;18.208;2022-12-07T13:52:58;16.67;;;9.30;;
21705;SDS011;11014;53.076;18.208;2022-12-07T13:55:28;12.02;;;8.32;;
21705;SDS011;11014;53.076;18.208;2022-12-07T13:57:57;15.10;;;9.13;;
21705;SDS011;11014;53.076;18.208;2022-12-07T14:00:29;11.68;;;7.00;;
21705;SDS011;11014;53.076;18.208;2022-12-07T14:03:00;13.30;;;8.63;;
21705;SDS011;11014;53.076;18.208;2022-12-07T14:05:34;10.57;;;7.55;;
21705;SDS011;11014;53.076;18.208;2022-12-07T14:13:59;13.73;;;9.10;;
21705;SDS011;11014;53.076;18.208;2022-12-07T14:16:35;12.52;;;8.63;;
21705;SDS011;11014;53.076;18.208;2022-12-07T14:19:06;13.45;;;9.18;;
21705;SDS011;11014;53.076;18.208;2022-12-07T14:27:49;12.18;;;7.32;;
21705;SDS011;11014;53.076;18.208;2022-12-07T14:30:19;14.98;;;8.90;;
21705;SDS011;11014;53.076;18.208;2022-12-07T14:32:48;13.35;;;7.82;;
21705;SDS011;11014;53.076;18.208;2022-12-07T14:35:21;13.98;;;9.38;;
21705;SDS011;11014;53.076;18.208;2022-12-07T14:37:51;15.05;;;9.65;;
21705;SDS011;11014;53.076;18.208;2022-12-07T14:40:29;12.90;;;8.82;;
21705;SDS011;11014;53.076;18.208;2022-12-07T14:43:08;12.50;;;8.45;;
21705;SDS011;11014;53.076;18.208;2022-12-07T14:45:40;14.48;;;9.35;;
21705;SDS011;11014;53.076;18.208;2022-12-07T14:48:12;15.23;;;9.02;;
21705;SDS011;11014;53.076;18.208;2022-12-07T14:51:04;15.43;;;9.45;;
21705;SDS011;11014;53.076;18.208;2022-12-07T14:53:53;11.98;;;8.43;;
21705;SDS011;11014;53.076;18.208;2022-12-07T14:56:25;14.32;;;9.02;;
21705;SDS011;11014;53.076;18.208;2022-12-07T14:58:55;13.02;;;8.80;;
21705;SDS011;11014;53.076;18.208;2022-12-07T15:01:38;11.93;;;8.18;;
21705;SDS011;11014;53.076;18.208;2022-12-07T15:04:07;12.77;;;8.57;;
21705;SDS011;11014;53.076;18.208;2022-12-07T15:06:35;13.45;;;8.80;;
21705;SDS011;11014;53.076;18.208;2022-12-07T15:09:04;11.68;;;8.45;;
21705;SDS011;11014;53.076;18.208;2022-12-07T15:11:32;12.85;;;8.55;;
21705;SDS011;11014;53.076;18.208;2022-12-07T15:14:01;11.82;;;8.05;;
21705;SDS011;11014;53.076;18.208;2022-12-07T15:16:36;17.00;;;9.80;;
21705;SDS011;11014;53.076;18.208;2022-12-07T15:19:27;13.85;;;8.60;;
21705;SDS011;11014;53.076;18.208;2022-12-07T15:21:58;17.40;;;9.77;;
21705;SDS011;11014;53.076;18.208;2022-12-07T15:24:30;13.30;;;8.15;;
21705;SDS011;11014;53.076;18.208;2022-12-07T15:27:23;12.23;;;8.32;;
21705;SDS011;11014;53.076;18.208;2022-12-07T15:29:52;11.43;;;7.95;;
21705;SDS011;11014;53.076;18.208;2022-12-07T15:32:21;10.27;;;7.07;;
21705;SDS011;11014;53.076;18.208;2022-12-07T15:34:51;11.98;;;8.25;;
21705;SDS011;11014;53.076;18.208;2022-12-07T15:37:19;10.93;;;8.23;;
21705;SDS011;11014;53.076;18.208;2022-12-07T15:39:48;11.07;;;7.18;;
21705;SDS011;11014;53.076;18.208;2022-12-07T15:42:16;16.52;;;10.95;;
21705;SDS011;11014;53.076;18.208;2022-12-07T15:44:45;16.77;;;11.63;;
21705;SDS011;11014;53.076;18.208;2022-12-07T15:47:36;13.07;;;8.95;;
21705;SDS011;11014;53.076;18.208;2022-12-07T15:50:26;12.48;;;7.95;;
21705;SDS011;11014;53.076;18.208;2022-12-07T15:52:55;12.52;;;9.23;;
21705;SDS011;11014;53.076;18.208;2022-12-07T15:55:23;12.25;;;9.00;;
21705;SDS011;11014;53.076;18.208;2022-12-07T15:57:52;14.02;;;9.07;;
21705;SDS011;11014;53.076;18.208;2022-12-07T16:00:20;13.40;;;8.75;;
21705;SDS011;11014;53.076;18.208;2022-12-07T16:02:49;12.52;;;7.97;;
21705;SDS011;11014;53.076;18.208;2022-12-07T16:05:17;13.30;;;8.77;;
21705;SDS011;11014;53.076;18.208;2022-12-07T16:07:46;12.55;;;9.07;;
21705;SDS011;11014;53.076;18.208;2022-12-07T16:10:15;14.48;;;9.00;;
21705;SDS011;11014;53.076;18.208;2022-12-07T16:12:43;15.60;;;9.90;;
21705;SDS011;11014;53.076;18.208;2022-12-07T16:15:12;17.65;;;10.30;;
21705;SDS011;11014;53.076;18.208;2022-12-07T16:17:40;15.30;;;9.35;;
21705;SDS011;11014;53.076;18.208;2022-12-07T16:20:09;13.50;;;8.43;;
21705;SDS011;11014;53.076;18.208;2022-12-07T16:22:38;12.50;;;8.65;;
21705;SDS011;11014;53.076;18.208;2022-12-07T16:25:07;15.75;;;9.10;;
21705;SDS011;11014;53.076;18.208;2022-12-07T16:27:35;14.93;;;9.48;;
21705;SDS011;11014;53.076;18.208;2022-12-07T16:30:04;13.48;;;8.60;;
21705;SDS011;11014;53.076;18.208;2022-12-07T16:32:33;14.98;;;9.40;;
21705;SDS011;11014;53.076;18.208;2022-12-07T16:35:02;16.15;;;8.80;;
21705;SDS011;11014;53.076;18.208;2022-12-07T16:37:31;16.52;;;9.43;;
21705;SDS011;11014;53.076;18.208;2022-12-07T16:40:00;16.80;;;9.98;;
21705;SDS011;11014;53.076;18.208;2022-12-07T16:42:35;17.30;;;9.60;;
21705;SDS011;11014;53.076;18.208;2022-12-07T16:45:03;16.70;;;9.68;;
21705;SDS011;11014;53.076;18.208;2022-12-07T16:47:36;20.15;;;10.43;;
21705;SDS011;11014;53.076;18.208;2022-12-07T16:50:09;15.30;;;9.27;;
21705;SDS011;11014;53.076;18.208;2022-12-07T16:52:45;15.02;;;8.68;;
21705;SDS011;11014;53.076;18.208;2022-12-07T16:59:23;14.00;;;8.65;;
21705;SDS011;11014;53.076;18.208;2022-12-07T17:18:40;16.48;;;9.35;;
21705;SDS011;11014;53.076;18.208;2022-12-07T17:25:03;17.15;;;10.55;;
21705;SDS011;11014;53.076;18.208;2022-12-07T17:27:45;17.05;;;10.98;;
21705;SDS011;11014;53.076;18.208;2022-12-07T17:31:18;17.00;;;9.38;;
21705;SDS011;11014;53.076;18.208;2022-12-07T17:35:05;19.52;;;10.80;;
21705;SDS011;11014;53.076;18.208;2022-12-07T17:50:44;18.83;;;10.40;;
21705;SDS011;11014;53.076;18.208;2022-12-07T17:59:11;16.98;;;9.35;;
21705;SDS011;11014;53.076;18.208;2022-12-07T18:01:40;16.02;;;10.00;;
21705;SDS011;11014;53.076;18.208;2022-12-07T18:04:11;17.58;;;9.55;;
21705;SDS011;11014;53.076;18.208;2022-12-07T18:30:39;9.85;;;5.85;;
21705;SDS011;11014;53.076;18.208;2022-12-07T18:38:13;9.30;;;6.18;;
21705;SDS011;11014;53.076;18.208;2022-12-07T18:49:45;13.88;;;7.32;;
21705;SDS011;11014;53.076;18.208;2022-12-07T18:52:14;11.82;;;7.00;;
21705;SDS011;11014;53.076;18.208;2022-12-07T18:59:35;10.25;;;6.03;;
21705;SDS011;11014;53.076;18.208;2022-12-07T19:03:35;9.07;;;5.57;;